Airfield :
LOGIN :

Register | Disclaimer

   EN    FR    IT 

 










Legend :    VFR   Marginal VFR   IFR   Intensive IFR   Very Intensive IFR
Visi :
Ceiling :
>= 8 km
>= 3000ft
5 to 8 km
1000 to 3000 ft
1500m to 5 km
500 to 1000 ft
800 to 1500m
200 to 500 ft
< 800m
< 200 ft
Symbols :   Thunderstorms  Fog  Heavy snow  Heavy precipitations  Wind > 20 kt
SIGMETs :     Misc.  Thunderstorms  Icing  Turbulence  Mountain Waves  Volcanic Ashes






- Airport Elevation : 17 ft
- IATA code : GRQ


EHGG - Groningen Eelde

CURRENT METAR :
  • 200125Z AUTO 31010G20KT 240V360 5000 RA FEW013 FEW015CB SCT017 BKN020 04/02 Q1020

EXPIRED METARs :
  • 200055Z AUTO 27008KT 240V300 9999 BKN044 BKN049 04/02 Q1020
  • 200025Z AUTO 28009KT 250V320 9999 BKN019 BKN024 04/02 Q1020
  • 192355Z AUTO 27008KT 240V310 9999 FEW029 04/01 Q1020
  • 192325Z AUTO 26009KT 230V300 9999 NSC 04/02 Q1019
  • 192255Z AUTO 26009KT 230V290 9999 FEW028 OVC047 04/01 Q1020

TAF TAF EHGG
Valid from the 20 at 00:00 until the 21 at 06:00 UTC


192302Z 2000/2106 29012KT 9999 SCT025
BECMG 2000/2003 33015G25KT
PROB40
TEMPO 2000/2020 33020G32KT 4000 -SHRA SHRAGSSN FEW015CB
BECMG 2017/2020 32010KT
PROB30
TEMPO 2020/2106 7000 -SHRA FEW015CB



MET'MAP, your aeronautical weather chart ! - Copyright ORBIFLY December 2007 - Disclaimer

ORBIFLY MET'MAP TEAM :

Programming & Development : Alexandra Zaïnal
Concept & original design : Baudouin d'Aumeries
Assistance for programming : Marc-Olivier Méhu
Technical & hardware support : Manuel Goepfert

Contact : metmap@orbifly.com




SOURCES & CREDITS :

   NOAA